Terminal Aerodrome Forecast
Issued by NWS

Home | Current Version | Previous Version | Text Only | Print | Product List | Glossary On
Versions: 1 2 3 4 5 6 7 8 9 10 11 12
000
FTUS45 KFGZ 191131
TAFPRC
TAF
KPRC 191131Z 1912/2012 19006KT P6SM BKN100
     FM191730 22011G18KT P6SM SCT100
     FM200100 20010KT P6SM FEW100=

USA.gov is the U.S. government's official web portal to all federal, state and local government web resources and services.